Terminal Aerodrome Forecast
Issued by NWS Charleston, WV

Current Version | Previous Version | Graphics & Text | Print | Product List | Glossary On
Versions: 1 2 3 4 5 6 7 8 9 10 11 12 13 14 15 16 17 18 19 20 21 22 23 24 25 26
000
FTUS41 KRLX 030901 AAA
TAFBKW
TAF AMD
KBKW 030901Z 0309/0406 14005KT 6SM BR OVC035
     FM031100 VRB03KT 3SM BR OVC020
     FM031300 15004KT 4SM SHRA BR OVC008
     FM031600 15005KT 3SM TSRA BR BKN008 OVC025CB
     FM032200 20003KT 5SM SHRA VCTS OVC015CB
     FM040200 25005KT 6SM BR BKN010=

USA.gov is the U.S. government's official web portal to all federal, state and local government web resources and services.